createdAt,value
2018-07-12T00:01:44.991Z,17.87
2018-07-12T00:02:45.053Z,17.92
2018-07-12T00:04:38.055Z,17.85
2018-07-12T00:05:38.113Z,17.87
2018-07-12T00:07:31.121Z,17.82
2018-07-12T00:08:31.172Z,17.85
2018-07-12T00:10:24.163Z,17.74
2018-07-12T00:11:24.229Z,17.74
2018-07-12T00:13:17.224Z,17.74
2018-07-12T00:14:17.280Z,17.79
2018-07-12T00:16:10.277Z,17.71
2018-07-12T00:17:10.341Z,17.67
2018-07-12T00:19:03.346Z,17.65
2018-07-12T00:20:03.410Z,17.60
2018-07-12T00:21:56.395Z,17.65
2018-07-12T00:22:56.457Z,17.60
2018-07-12T00:24:49.455Z,17.59
2018-07-12T00:25:49.553Z,17.54
2018-07-12T00:27:42.531Z,17.52
2018-07-12T00:28:42.566Z,17.41
2018-07-12T00:30:35.560Z,17.38
2018-07-12T00:31:35.624Z,17.33
2018-07-12T00:33:28.627Z,17.29
2018-07-12T00:34:28.684Z,17.23
2018-07-12T00:36:21.677Z,17.20
2018-07-12T00:37:21.741Z,17.14
2018-07-12T00:39:14.743Z,17.01
2018-07-12T00:40:14.799Z,16.97
2018-07-12T00:42:07.796Z,17.01
2018-07-12T00:43:07.852Z,16.89
2018-07-12T00:45:00.861Z,16.99
2018-07-12T00:46:00.915Z,16.81
2018-07-12T00:47:53.905Z,16.84
2018-07-12T00:48:53.968Z,16.81
2018-07-12T00:50:46.973Z,16.86
2018-07-12T00:51:47.031Z,16.74
2018-07-12T00:53:40.036Z,16.72
2018-07-12T00:54:40.091Z,16.78
2018-07-12T00:56:33.080Z,16.74
2018-07-12T00:57:33.143Z,16.74
2018-07-12T00:59:26.147Z,16.72
2018-07-12T01:00:26.204Z,16.65
2018-07-12T01:02:19.199Z,16.71
2018-07-12T01:03:19.257Z,16.79
2018-07-12T01:05:12.261Z,16.66
2018-07-12T01:07:25.274Z,16.72
2018-07-12T01:08:25.337Z,16.74
2018-07-12T01:10:18.337Z,16.72
2018-07-12T01:11:18.394Z,16.74
2018-07-12T01:13:11.390Z,16.75
2018-07-12T01:14:11.460Z,16.72
2018-07-12T01:16:04.450Z,16.72
2018-07-12T01:17:04.511Z,16.60
2018-07-12T01:18:57.496Z,16.64
2018-07-12T01:19:57.555Z,16.51
2018-07-12T01:21:50.557Z,16.49
2018-07-12T01:22:50.612Z,16.46
2018-07-12T01:24:43.608Z,16.39
2018-07-12T01:25:43.664Z,16.49
2018-07-12T01:27:36.652Z,16.51
2018-07-12T01:28:36.717Z,16.54
2018-07-12T01:30:29.718Z,16.54
2018-07-12T01:31:29.769Z,16.49
2018-07-12T01:33:22.757Z,16.56
2018-07-12T01:34:22.822Z,16.51
2018-07-12T01:36:15.820Z,16.53
2018-07-12T01:37:15.874Z,16.54
2018-07-12T01:39:08.868Z,16.49
2018-07-12T01:40:08.931Z,16.54
2018-07-12T01:42:01.931Z,16.50
2018-07-12T01:43:01.983Z,16.39
2018-07-12T01:44:54.991Z,16.39
2018-07-12T01:45:55.042Z,16.24
2018-07-12T01:47:48.027Z,16.43
2018-07-12T01:48:48.090Z,16.43
2018-07-12T01:50:41.086Z,16.42
2018-07-12T01:51:41.143Z,16.42
2018-07-12T01:53:34.132Z,16.42
2018-07-12T01:54:34.193Z,16.38
2018-07-12T01:56:27.193Z,16.39
2018-07-12T01:57:27.255Z,16.21
2018-07-12T01:59:20.238Z,16.39
2018-07-12T02:00:20.300Z,16.23
2018-07-12T02:02:13.298Z,16.29
2018-07-12T02:03:13.356Z,16.38
2018-07-12T02:05:06.341Z,16.23
2018-07-12T02:06:06.405Z,16.29
2018-07-12T02:07:59.401Z,16.24
2018-07-12T02:08:59.456Z,16.17
2018-07-12T02:10:52.458Z,16.28
2018-07-12T02:11:52.516Z,16.16
2018-07-12T02:13:45.498Z,16.15
2018-07-12T02:14:45.557Z,16.13
2018-07-12T02:16:38.562Z,16.10
2018-07-12T02:17:38.619Z,16.02
2018-07-12T02:19:31.611Z,16.10
2018-07-12T02:20:31.672Z,15.97
2018-07-12T02:22:24.668Z,16.04
2018-07-12T02:23:24.720Z,16.00
2018-07-12T02:25:17.710Z,16.01
2018-07-12T02:26:17.773Z,16.01
2018-07-12T02:28:10.778Z,15.95
2018-07-12T02:29:10.832Z,15.84
2018-07-12T02:31:03.848Z,15.91
2018-07-12T02:32:03.892Z,15.86
2018-07-12T02:33:56.880Z,15.75
2018-07-12T02:34:56.955Z,15.82
2018-07-12T02:36:49.942Z,15.77
2018-07-12T02:37:49.998Z,15.80
2018-07-12T02:39:42.991Z,15.73
2018-07-12T02:40:43.053Z,15.73
2018-07-12T02:42:36.049Z,15.73
2018-07-12T02:43:36.104Z,15.67
2018-07-12T02:45:29.094Z,15.70
2018-07-12T02:46:29.154Z,15.64
2018-07-12T02:48:22.153Z,15.68
2018-07-12T02:49:22.207Z,15.67
2018-07-12T02:51:15.204Z,15.61
2018-07-12T02:52:15.259Z,15.57
2018-07-12T02:54:08.248Z,15.47
2018-07-12T02:55:08.310Z,15.59
2018-07-12T02:57:01.308Z,15.57
2018-07-12T02:58:01.362Z,15.57
2018-07-12T02:59:54.349Z,15.57
2018-07-12T03:00:54.411Z,15.58
2018-07-12T03:02:47.408Z,15.47
2018-07-12T03:03:47.467Z,15.42
2018-07-12T03:05:40.452Z,15.46
2018-07-12T03:06:40.530Z,15.43
2018-07-12T03:08:33.515Z,15.36
2018-07-12T03:09:33.566Z,15.44
2018-07-12T03:11:26.559Z,15.46
2018-07-12T03:12:26.621Z,15.33
2018-07-12T03:14:19.618Z,15.40
2018-07-12T03:15:19.673Z,15.37
2018-07-12T03:17:12.669Z,15.35
2018-07-12T03:18:12.727Z,15.35
2018-07-12T03:20:05.718Z,15.29
2018-07-12T03:21:05.775Z,15.11
2018-07-12T03:22:58.771Z,15.07
2018-07-12T03:23:58.824Z,15.15
2018-07-12T03:25:51.813Z,15.10
2018-07-12T03:26:51.878Z,15.14
2018-07-12T03:28:44.879Z,15.07
2018-07-12T03:29:44.935Z,15.15
2018-07-12T03:31:37.933Z,15.14
2018-07-12T03:32:37.993Z,15.19
2018-07-12T03:34:30.990Z,15.10
2018-07-12T03:35:31.044Z,15.06
2018-07-12T03:37:24.040Z,15.15
2018-07-12T03:38:24.096Z,15.10
2018-07-12T03:40:17.082Z,15.07
2018-07-12T03:41:17.187Z,15.04
2018-07-12T03:43:10.137Z,15.07
2018-07-12T03:44:10.193Z,15.06
2018-07-12T03:46:03.183Z,15.07
2018-07-12T03:47:03.239Z,15.04
2018-07-12T03:48:56.239Z,15.15
2018-07-12T03:49:56.294Z,15.15
2018-07-12T03:51:49.279Z,15.17
2018-07-12T03:52:49.343Z,15.18
2018-07-12T03:54:42.336Z,15.22
2018-07-12T03:55:42.392Z,15.19
2018-07-12T03:57:35.386Z,15.28
2018-07-12T03:58:35.441Z,15.11
2018-07-12T04:00:28.428Z,15.28
2018-07-12T04:01:28.481Z,15.29
2018-07-12T04:03:21.483Z,15.28
2018-07-12T04:04:21.539Z,15.24
2018-07-12T04:06:14.525Z,15.33
2018-07-12T04:07:14.589Z,15.31
2018-07-12T04:09:07.581Z,15.40
2018-07-12T04:10:07.635Z,15.35
2018-07-12T04:12:00.626Z,15.40
2018-07-12T04:13:00.687Z,15.29
2018-07-12T04:14:53.686Z,15.44
2018-07-12T04:15:53.736Z,15.39
2018-07-12T04:17:46.725Z,15.47
2018-07-12T04:18:46.786Z,15.43
2018-07-12T04:20:39.782Z,15.47
2018-07-12T04:21:39.837Z,15.57
2018-07-12T04:23:32.832Z,15.54
2018-07-12T04:24:32.889Z,15.54
2018-07-12T04:26:25.897Z,15.61
2018-07-12T04:27:26.014Z,15.57
2018-07-12T04:29:18.947Z,15.61
2018-07-12T04:30:19.020Z,15.58
2018-07-12T04:32:12.002Z,15.68
2018-07-12T04:33:12.063Z,15.65
2018-07-12T04:35:05.081Z,15.80
2018-07-12T04:36:05.130Z,15.79
2018-07-12T04:37:58.131Z,15.98
2018-07-12T04:38:58.186Z,15.94
2018-07-12T04:40:51.186Z,15.97
2018-07-12T04:41:51.230Z,16.00
2018-07-12T04:43:44.300Z,16.01
2018-07-12T04:44:44.307Z,16.02
2018-07-12T04:46:37.337Z,16.04
2018-07-12T04:47:37.409Z,16.00
2018-07-12T04:49:30.393Z,16.08
2018-07-12T04:50:30.402Z,16.01
2018-07-12T04:52:23.411Z,16.13
2018-07-12T04:53:23.455Z,16.13
2018-07-12T04:55:16.503Z,16.20
2018-07-12T04:56:16.554Z,16.20
2018-07-12T04:58:09.548Z,16.23
2018-07-12T04:59:09.546Z,16.28
2018-07-12T05:01:02.547Z,16.24
2018-07-12T05:02:02.602Z,16.28
2018-07-12T05:03:55.590Z,16.33
2018-07-12T05:04:55.657Z,16.41
2018-07-12T05:06:48.650Z,16.46
2018-07-12T05:07:48.704Z,16.35
2018-07-12T05:09:42.218Z,16.42
2018-07-12T05:10:42.263Z,16.51
2018-07-12T05:12:35.252Z,16.51
2018-07-12T05:13:35.309Z,16.56
2018-07-12T05:15:28.312Z,16.64
2018-07-12T05:16:28.363Z,16.68
2018-07-12T05:18:21.353Z,16.68
2018-07-12T05:19:21.428Z,16.75
2018-07-12T05:21:14.416Z,16.81
2018-07-12T05:22:14.470Z,16.83
2018-07-12T05:24:07.460Z,16.84
2018-07-12T05:25:07.524Z,16.96
2018-07-12T05:27:00.522Z,16.99
2018-07-12T05:28:00.577Z,16.94
2018-07-12T05:29:53.570Z,16.94
2018-07-12T05:30:53.644Z,17.11
2018-07-12T05:32:46.627Z,17.09
2018-07-12T05:33:46.682Z,17.24
2018-07-12T05:35:39.682Z,17.26
2018-07-12T05:36:39.739Z,17.27
2018-07-12T05:38:32.738Z,17.30
2018-07-12T05:39:32.798Z,17.34
2018-07-12T05:41:25.799Z,17.34
2018-07-12T05:42:25.855Z,17.36
2018-07-12T05:44:18.849Z,17.39
2018-07-12T05:45:18.912Z,17.49
2018-07-12T05:47:11.915Z,17.54
2018-07-12T05:48:11.973Z,17.56
2018-07-12T05:50:04.983Z,17.65
2018-07-12T05:51:05.043Z,17.65
2018-07-12T05:52:58.040Z,17.72
2018-07-12T05:53:58.098Z,17.86
2018-07-12T05:55:51.105Z,17.85
2018-07-12T05:56:51.163Z,17.95
2018-07-12T05:58:44.163Z,17.97
2018-07-12T05:59:44.220Z,17.97
2018-07-12T06:01:37.226Z,18.10
2018-07-12T06:02:37.282Z,18.04
2018-07-12T06:04:30.273Z,18.19
2018-07-12T06:05:30.337Z,18.29
2018-07-12T06:07:23.337Z,18.28
2018-07-12T06:08:23.393Z,18.38
2018-07-12T06:10:16.384Z,18.56
2018-07-12T06:11:16.450Z,18.66
2018-07-12T06:13:09.495Z,18.92
2018-07-12T06:14:09.559Z,19.16
2018-07-12T06:16:02.530Z,19.63
2018-07-12T06:17:02.594Z,19.95
2018-07-12T06:18:55.629Z,20.48
2018-07-12T06:19:55.624Z,20.87
2018-07-12T06:21:48.649Z,21.95
2018-07-12T06:22:48.690Z,22.85
2018-07-12T06:24:41.715Z,24.73
2018-07-12T06:25:41.747Z,25.58
2018-07-12T06:27:34.773Z,26.22
2018-07-12T06:28:34.807Z,26.59
2018-07-12T06:30:27.798Z,27.21
2018-07-12T06:31:27.864Z,27.39
2018-07-12T06:33:20.869Z,27.96
2018-07-12T06:34:20.957Z,28.30
2018-07-12T06:36:13.939Z,28.93
2018-07-12T06:37:14.052Z,29.07
2018-07-12T06:39:06.992Z,29.41
2018-07-12T06:40:07.080Z,29.66
2018-07-12T06:42:00.082Z,30.09
2018-07-12T06:43:00.141Z,30.27
2018-07-12T06:44:53.175Z,30.77
2018-07-12T06:45:53.231Z,30.99
2018-07-12T06:47:46.243Z,30.77
2018-07-12T06:48:46.302Z,30.99
2018-07-12T06:50:39.356Z,30.87
2018-07-12T06:51:39.384Z,31.21
2018-07-12T06:53:32.400Z,31.49
2018-07-12T06:54:32.491Z,31.66
2018-07-12T06:56:25.523Z,32.16
2018-07-12T06:57:25.558Z,32.38
2018-07-12T06:59:18.576Z,32.82
2018-07-12T07:00:18.655Z,32.95
2018-07-12T07:02:11.671Z,33.17
2018-07-12T07:03:11.739Z,33.43
2018-07-12T07:05:04.775Z,33.77
2018-07-12T07:06:04.845Z,33.94
2018-07-12T07:07:57.906Z,34.06
2018-07-12T07:08:57.921Z,33.95
2018-07-12T07:10:50.955Z,34.01
2018-07-12T07:11:51.031Z,33.92
2018-07-12T07:13:44.124Z,33.95
2018-07-12T07:14:44.144Z,34.21
2018-07-12T07:16:37.137Z,35.29
2018-07-12T07:17:37.201Z,35.71
2018-07-12T07:19:30.297Z,35.45
2018-07-12T07:20:30.327Z,35.67
2018-07-12T07:22:23.346Z,35.90
2018-07-12T07:23:23.412Z,36.00
2018-07-12T07:25:16.507Z,36.25
2018-07-12T07:26:16.521Z,36.58
2018-07-12T07:28:09.533Z,36.31
2018-07-12T07:29:09.618Z,36.62
2018-07-12T07:31:02.651Z,36.96
2018-07-12T07:32:02.705Z,36.88
2018-07-12T07:33:55.731Z,36.77
2018-07-12T07:34:55.812Z,37.21
2018-07-12T07:36:48.838Z,36.89
2018-07-12T07:37:48.908Z,36.73
2018-07-12T07:39:41.968Z,36.39
2018-07-12T07:40:42.009Z,35.98
2018-07-12T07:42:35.083Z,36.42
2018-07-12T07:43:35.114Z,36.73
2018-07-12T07:45:28.152Z,36.83
2018-07-12T07:46:28.232Z,36.59
2018-07-12T07:48:21.247Z,37.06
2018-07-12T07:49:21.349Z,37.15
2018-07-12T07:51:14.362Z,37.36
2018-07-12T07:52:14.432Z,37.40
2018-07-12T07:54:07.458Z,36.81
2018-07-12T07:55:07.541Z,37.02
2018-07-12T07:57:00.568Z,36.92
2018-07-12T07:58:00.656Z,36.89
2018-07-12T07:59:53.663Z,37.64
2018-07-12T08:00:53.743Z,38.19
2018-07-12T08:02:46.769Z,37.53
2018-07-12T08:03:46.845Z,37.56
2018-07-12T08:05:39.875Z,37.48
2018-07-12T08:06:39.957Z,37.83
2018-07-12T08:08:32.987Z,37.99
2018-07-12T08:09:33.101Z,38.19
2018-07-12T08:11:26.097Z,37.94
2018-07-12T08:12:26.157Z,38.02
2018-07-12T08:14:19.189Z,37.71
2018-07-12T08:15:19.281Z,37.93
2018-07-12T08:17:12.313Z,38.91
2018-07-12T08:18:12.370Z,39.09
2018-07-12T08:20:05.418Z,39.19
2018-07-12T08:21:05.567Z,38.67
2018-07-12T08:22:58.527Z,39.43
2018-07-12T08:23:58.602Z,39.14
2018-07-12T08:25:51.637Z,39.40
2018-07-12T08:26:51.715Z,39.70
2018-07-12T08:28:44.762Z,40.27
2018-07-12T08:29:44.833Z,40.31
2018-07-12T08:31:37.893Z,39.51
2018-07-12T08:32:37.962Z,39.36
2018-07-12T08:34:31.036Z,39.59
2018-07-12T08:35:31.087Z,39.19
2018-07-12T08:37:24.122Z,37.94
2018-07-12T08:38:24.193Z,37.83
2018-07-12T08:40:17.244Z,38.52
2018-07-12T08:41:17.338Z,38.82
2018-07-12T08:43:10.346Z,38.96
2018-07-12T08:44:10.420Z,38.40
2018-07-12T08:46:03.483Z,39.25
2018-07-12T08:47:03.608Z,39.65
2018-07-12T08:48:56.613Z,39.97
2018-07-12T08:49:56.682Z,39.78
2018-07-12T08:51:49.714Z,39.02
2018-07-12T08:52:49.805Z,39.18
2018-07-12T08:54:42.916Z,38.17
2018-07-12T08:55:42.924Z,37.97
2018-07-12T08:57:35.965Z,38.67
2018-07-12T08:58:36.038Z,38.49
2018-07-12T09:00:29.078Z,38.01
2018-07-12T09:01:29.150Z,37.74
2018-07-12T09:03:22.209Z,37.58
2018-07-12T09:04:22.304Z,37.74
2018-07-12T09:06:15.329Z,37.47
2018-07-12T09:07:15.425Z,37.36
2018-07-12T09:09:08.470Z,38.21
2018-07-12T09:10:08.550Z,38.19
2018-07-12T09:12:01.592Z,37.33
2018-07-12T09:13:01.688Z,36.81
2018-07-12T09:14:54.736Z,37.35
2018-07-12T09:15:54.801Z,37.45
2018-07-12T09:17:47.857Z,37.89
2018-07-12T09:18:47.917Z,37.78
2018-07-12T09:20:40.963Z,35.36
2018-07-12T09:21:41.049Z,34.70
2018-07-12T09:23:34.097Z,33.49
2018-07-12T09:24:34.156Z,32.80
2018-07-12T09:26:27.231Z,34.90
2018-07-12T09:27:27.315Z,35.29
2018-07-12T09:29:20.345Z,36.05
2018-07-12T09:30:20.424Z,36.23
2018-07-12T09:32:13.463Z,34.17
2018-07-12T09:33:13.546Z,34.27
2018-07-12T09:35:06.583Z,34.60
2018-07-12T09:36:06.657Z,34.35
2018-07-12T09:37:59.711Z,33.95
2018-07-12T09:38:59.768Z,33.39
2018-07-12T09:40:52.801Z,32.51
2018-07-12T09:41:52.888Z,31.81
2018-07-12T09:43:45.910Z,30.62
2018-07-12T09:44:45.982Z,30.46
2018-07-12T09:46:38.996Z,30.08
2018-07-12T09:47:39.101Z,29.76
2018-07-12T09:49:32.101Z,29.31
2018-07-12T09:50:32.210Z,29.35
2018-07-12T09:52:25.207Z,29.10
2018-07-12T09:53:25.280Z,29.22
2018-07-12T09:55:18.288Z,29.08
2018-07-12T09:56:18.541Z,28.81
2018-07-12T09:58:11.420Z,28.60
2018-07-12T09:59:11.457Z,28.45
2018-07-12T10:01:04.510Z,28.38
2018-07-12T10:02:04.534Z,28.32
2018-07-12T10:03:57.551Z,28.25
2018-07-12T10:04:57.631Z,28.47
2018-07-12T10:06:50.649Z,28.62
2018-07-12T10:07:50.706Z,28.75
2018-07-12T10:09:44.246Z,28.85
2018-07-12T10:10:44.300Z,28.63
2018-07-12T10:12:37.337Z,28.69
2018-07-12T10:13:37.424Z,28.60
2018-07-12T10:15:30.411Z,28.48
2018-07-12T10:16:30.479Z,28.45
2018-07-12T10:18:23.519Z,28.59
2018-07-12T10:19:23.593Z,28.62
2018-07-12T10:21:16.664Z,28.44
2018-07-12T10:22:16.658Z,28.32
2018-07-12T10:24:09.687Z,28.01
2018-07-12T10:25:09.771Z,28.01
2018-07-12T10:27:02.776Z,27.82
2018-07-12T10:28:02.887Z,27.93
2018-07-12T10:29:55.883Z,28.32
2018-07-12T10:30:55.915Z,28.47
2018-07-12T10:32:48.940Z,28.51
2018-07-12T10:33:49.034Z,28.52
2018-07-12T10:35:42.012Z,28.11
2018-07-12T10:36:42.089Z,28.05
2018-07-12T10:38:35.098Z,28.25
2018-07-12T10:39:35.189Z,28.29
2018-07-12T10:41:28.184Z,28.52
2018-07-12T10:42:28.247Z,28.72
2018-07-12T10:44:21.283Z,28.69
2018-07-12T10:45:21.340Z,28.32
2018-07-12T10:47:14.362Z,28.14
2018-07-12T10:48:14.422Z,28.10
2018-07-12T10:50:07.447Z,28.35
2018-07-12T10:51:07.509Z,28.25
2018-07-12T10:53:00.537Z,28.26
2018-07-12T10:54:00.600Z,28.27
2018-07-12T10:55:53.613Z,28.20
2018-07-12T10:56:53.675Z,28.33
2018-07-12T10:58:46.742Z,28.63
2018-07-12T10:59:46.779Z,28.64
2018-07-12T11:01:39.787Z,28.93
2018-07-12T11:02:39.854Z,28.86
2018-07-12T11:04:32.898Z,28.57
2018-07-12T11:05:32.931Z,28.69
2018-07-12T11:07:25.961Z,28.63
2018-07-12T11:08:26.016Z,28.33
2018-07-12T11:10:19.537Z,28.11
2018-07-12T11:11:19.622Z,28.04
2018-07-12T11:13:12.651Z,28.02
2018-07-12T11:14:12.684Z,28.10
2018-07-12T11:16:05.695Z,28.05
2018-07-12T11:17:05.768Z,28.11
2018-07-12T11:18:58.809Z,28.04
2018-07-12T11:19:58.871Z,28.10
2018-07-12T11:21:51.873Z,27.92
2018-07-12T11:22:51.931Z,27.83
2018-07-12T11:24:44.965Z,27.85
2018-07-12T11:25:45.038Z,27.83
2018-07-12T11:27:38.058Z,27.87
2018-07-12T11:28:38.163Z,27.86
2018-07-12T11:30:31.129Z,27.93
2018-07-12T11:31:31.197Z,27.80
2018-07-12T11:33:24.242Z,27.68
2018-07-12T11:34:24.282Z,27.77
2018-07-12T11:36:17.329Z,27.64
2018-07-12T11:37:17.362Z,27.65
2018-07-12T11:39:10.385Z,27.25
2018-07-12T11:40:10.439Z,27.42
2018-07-12T11:42:03.472Z,27.51
2018-07-12T11:43:03.520Z,27.55
2018-07-12T11:44:56.541Z,27.63
2018-07-12T11:45:56.598Z,27.48
2018-07-12T11:47:49.609Z,27.39
2018-07-12T11:48:49.702Z,27.36
2018-07-12T11:50:42.685Z,27.33
2018-07-12T11:51:42.766Z,27.60
2018-07-12T11:53:35.806Z,27.92
2018-07-12T11:54:35.835Z,28.04
2018-07-12T11:56:28.852Z,28.22
2018-07-12T11:57:28.910Z,28.04
2018-07-12T11:59:21.927Z,27.83
2018-07-12T12:00:21.991Z,27.58
2018-07-12T12:02:15.007Z,27.48
2018-07-12T12:03:15.076Z,27.52
2018-07-12T12:05:08.233Z,27.65
2018-07-12T12:06:08.158Z,27.87
2018-07-12T12:08:01.339Z,27.95
2018-07-12T12:09:01.359Z,28.08
2018-07-12T12:10:55.167Z,28.17
2018-07-12T12:11:54.406Z,28.12
2018-07-12T12:13:47.336Z,28.08
2018-07-12T12:14:47.399Z,28.14
2018-07-12T12:16:40.408Z,27.73
2018-07-12T12:17:40.479Z,27.51
2018-07-12T12:19:33.515Z,27.27
2018-07-12T12:20:33.573Z,27.08
2018-07-12T12:22:26.571Z,27.05
2018-07-12T12:23:26.633Z,27.18
2018-07-12T12:25:19.652Z,27.27
2018-07-12T12:26:19.996Z,27.17
2018-07-12T12:28:12.791Z,27.30
2018-07-12T12:29:12.865Z,27.05
2018-07-12T12:31:05.852Z,26.92
2018-07-12T12:32:05.960Z,26.97
2018-07-12T12:33:58.897Z,26.88
2018-07-12T12:34:59.131Z,26.95
2018-07-12T12:36:51.987Z,26.85
2018-07-12T12:37:52.142Z,26.92
2018-07-12T12:39:45.118Z,26.88
2018-07-12T12:40:45.157Z,26.85
2018-07-12T12:42:38.135Z,26.96
2018-07-12T12:43:38.285Z,27.14
2018-07-12T12:45:31.259Z,27.10
2018-07-12T12:46:31.273Z,27.10
2018-07-12T12:48:24.507Z,27.27
2018-07-12T12:49:24.361Z,27.27
2018-07-12T12:51:17.398Z,27.48
2018-07-12T12:52:17.432Z,27.40
2018-07-12T12:54:10.480Z,27.74
2018-07-12T12:55:10.537Z,27.78
2018-07-12T12:57:03.520Z,27.96
2018-07-12T12:58:03.644Z,27.89
2018-07-12T12:59:56.654Z,27.63
2018-07-12T13:00:56.726Z,27.68
2018-07-12T13:02:50.592Z,27.67
2018-07-12T13:03:50.606Z,27.74
2018-07-12T13:05:43.620Z,28.01
2018-07-12T13:06:43.792Z,28.14
2018-07-12T13:08:36.757Z,28.44
2018-07-12T13:09:36.884Z,28.52
2018-07-12T13:11:29.884Z,28.67
2018-07-12T13:12:29.882Z,28.76
2018-07-12T13:16:37.564Z,28.38
2018-07-12T13:17:36.800Z,28.19
2018-07-12T13:19:29.696Z,28.04
2018-07-12T13:20:30.099Z,28.05
2018-07-12T13:22:23.632Z,28.04
2018-07-12T13:23:25.810Z,28.02
2018-07-12T13:25:17.636Z,28.02
2018-07-12T13:26:19.228Z,28.10
2018-07-12T13:28:14.618Z,28.04
2018-07-12T13:29:13.596Z,28.10
2018-07-12T13:31:05.261Z,28.15
2018-07-12T13:32:03.989Z,28.08
2018-07-12T13:33:56.977Z,28.10
2018-07-12T13:34:57.049Z,28.20
2018-07-12T13:36:50.056Z,28.27
2018-07-12T13:37:50.125Z,28.38
2018-07-12T13:39:43.249Z,28.56
2018-07-12T13:40:43.290Z,28.38
2018-07-12T13:42:36.208Z,28.30
2018-07-12T13:43:36.322Z,28.29
2018-07-12T13:45:29.383Z,28.30
2018-07-12T13:46:29.407Z,28.30
2018-07-12T13:48:22.393Z,28.11
2018-07-12T13:49:22.690Z,28.02
2018-07-12T13:51:15.428Z,28.30
2018-07-12T13:52:15.565Z,28.39
2018-07-12T13:54:08.793Z,28.44
2018-07-12T13:55:09.008Z,28.52
2018-07-12T13:57:02.048Z,28.41
2018-07-12T13:58:01.962Z,28.27
2018-07-12T13:59:55.165Z,28.14
2018-07-12T14:00:55.100Z,27.90
2018-07-12T14:02:48.250Z,27.87
2018-07-12T14:03:49.921Z,27.74
2018-07-12T14:05:41.852Z,27.85
2018-07-12T14:06:41.360Z,27.65
2018-07-12T14:08:34.940Z,27.68
2018-07-12T14:09:34.493Z,27.71
2018-07-12T14:11:28.029Z,27.87
2018-07-12T14:12:27.523Z,27.93
2018-07-12T14:14:20.382Z,27.95
2018-07-12T14:15:20.642Z,27.92
2018-07-12T14:17:13.575Z,27.93
2018-07-12T14:18:13.557Z,27.80
2018-07-12T14:20:07.264Z,27.90
2018-07-12T14:21:06.713Z,27.80
2018-07-12T14:22:59.832Z,28.01
2018-07-12T14:23:59.901Z,28.00
2018-07-12T14:25:52.878Z,28.12
2018-07-12T14:26:52.967Z,28.12
2018-07-12T14:28:46.484Z,28.07
2018-07-12T14:29:45.870Z,28.14
2018-07-12T14:31:39.517Z,28.05
2018-07-12T14:32:39.641Z,27.98
2018-07-12T14:34:32.134Z,28.04
2018-07-12T14:35:32.793Z,28.04
2018-07-12T14:37:25.209Z,28.02
2018-07-12T14:38:24.929Z,28.01
2018-07-12T14:40:18.241Z,28.02
2018-07-12T14:41:18.778Z,28.04
2018-07-12T14:43:11.401Z,28.01
2018-07-12T14:44:11.957Z,28.05
2018-07-12T14:46:04.666Z,28.12
2018-07-12T14:47:04.969Z,28.26
2018-07-12T14:48:58.476Z,28.39
2018-07-12T14:49:57.379Z,28.45
2018-07-12T14:51:51.579Z,28.56
2018-07-12T14:52:51.198Z,28.60
2018-07-12T14:54:43.683Z,28.62
2018-07-12T14:55:44.814Z,28.60
2018-07-12T14:57:36.739Z,28.49
2018-07-12T14:58:36.800Z,28.64
2018-07-12T15:00:32.319Z,28.48
2018-07-12T15:01:31.326Z,28.41
2018-07-12T15:03:24.449Z,28.41
2018-07-12T15:04:24.276Z,28.45
2018-07-12T15:06:17.513Z,28.38
2018-07-12T15:07:17.106Z,28.42
2018-07-12T15:09:10.181Z,28.44
2018-07-12T15:10:10.187Z,28.52
2018-07-12T15:12:03.573Z,28.48
2018-07-12T15:13:03.383Z,28.45
2018-07-12T15:14:56.281Z,28.45
2018-07-12T15:15:56.357Z,28.56
2018-07-12T15:17:49.394Z,28.66
2018-07-12T15:18:49.429Z,28.62
2018-07-12T15:20:42.561Z,28.57
2018-07-12T15:21:42.726Z,28.67
2018-07-12T15:23:36.297Z,28.86
2018-07-12T15:24:36.298Z,28.88
2018-07-12T15:26:29.122Z,29.05
2018-07-12T15:27:29.161Z,28.93
2018-07-12T15:29:22.220Z,28.60
2018-07-12T15:30:22.255Z,28.45
2018-07-12T15:32:15.274Z,28.08
2018-07-12T15:33:15.312Z,27.85
2018-07-12T15:35:08.327Z,27.55
2018-07-12T15:36:08.391Z,27.52
2018-07-12T15:38:01.624Z,27.39
2018-07-12T15:39:01.571Z,27.20
2018-07-12T15:40:54.487Z,27.00
2018-07-12T15:41:54.542Z,26.96
2018-07-12T15:43:47.557Z,26.85
2018-07-12T15:44:47.615Z,26.81
2018-07-12T15:46:40.622Z,26.80
2018-07-12T15:47:40.692Z,26.71
2018-07-12T15:49:33.707Z,26.75
2018-07-12T15:50:33.777Z,26.71
2018-07-12T15:52:26.805Z,26.74
2018-07-12T15:53:26.859Z,26.65
2018-07-12T15:55:19.866Z,26.58
2018-07-12T15:56:19.928Z,26.71
2018-07-12T15:58:12.936Z,26.81
2018-07-12T15:59:13.018Z,26.90
2018-07-12T16:01:06.025Z,27.00
2018-07-12T16:02:06.150Z,27.17
2018-07-12T16:03:59.091Z,27.42
2018-07-12T16:04:59.383Z,27.60
2018-07-12T16:06:52.158Z,27.70
2018-07-12T16:07:52.665Z,27.71
2018-07-12T16:09:45.305Z,27.68
2018-07-12T16:10:45.331Z,27.73
2018-07-12T16:12:38.388Z,27.80
2018-07-12T16:13:38.404Z,27.82
2018-07-12T16:15:31.481Z,27.64
2018-07-12T16:16:31.462Z,27.45
2018-07-12T16:18:24.472Z,27.03
2018-07-12T16:19:24.535Z,26.88
2018-07-12T16:21:17.547Z,26.93
2018-07-12T16:22:17.608Z,26.74
2018-07-12T16:24:11.136Z,26.60
2018-07-12T16:25:11.204Z,26.48
2018-07-12T16:27:04.211Z,26.26
2018-07-12T16:28:04.281Z,26.21
2018-07-12T16:29:57.394Z,26.23
2018-07-12T16:30:57.407Z,26.06
2018-07-12T16:32:50.443Z,25.90
2018-07-12T16:33:50.498Z,25.98
2018-07-12T16:35:43.503Z,26.05
2018-07-12T16:36:43.566Z,25.99
2018-07-12T16:38:37.256Z,25.70
2018-07-12T16:39:37.183Z,25.70
2018-07-12T16:41:30.462Z,25.63
2018-07-12T16:42:30.533Z,25.51
2018-07-12T16:44:23.278Z,25.55
2018-07-12T16:45:23.437Z,25.40
2018-07-12T16:47:16.435Z,25.51
2018-07-12T16:48:16.432Z,25.46
2018-07-12T16:50:09.458Z,25.44
2018-07-12T16:51:09.676Z,25.60
2018-07-12T16:53:03.569Z,25.72
2018-07-12T16:54:02.624Z,25.70
2018-07-12T16:55:55.963Z,25.63
2018-07-12T16:56:55.669Z,25.51
2018-07-12T16:58:49.020Z,25.47
2018-07-12T16:59:49.184Z,25.44
2018-07-12T17:01:41.996Z,25.58
2018-07-12T17:02:42.225Z,25.63
2018-07-12T17:04:35.173Z,25.80
2018-07-12T17:05:34.910Z,25.78
2018-07-12T17:07:27.968Z,25.72
2018-07-12T17:08:28.455Z,25.65
2018-07-12T17:10:21.165Z,25.51
2018-07-12T17:11:21.235Z,25.65
2018-07-12T17:13:14.213Z,25.69
2018-07-12T17:14:14.350Z,25.75
2018-07-12T17:16:07.261Z,25.81
2018-07-12T17:17:07.453Z,25.96
2018-07-12T17:19:01.169Z,25.98
2018-07-12T17:20:01.245Z,25.72
2018-07-12T17:21:54.256Z,25.73
2018-07-12T17:22:54.316Z,25.88
2018-07-12T17:24:47.323Z,25.80
2018-07-12T17:25:47.387Z,25.68
2018-07-12T17:27:40.388Z,25.58
2018-07-12T17:28:40.457Z,25.54
2018-07-12T17:30:33.468Z,25.54
2018-07-12T17:31:33.529Z,25.44
2018-07-12T17:33:26.564Z,25.54
2018-07-12T17:34:26.603Z,25.59
2018-07-12T17:36:19.609Z,25.55
2018-07-12T17:37:19.676Z,25.60
2018-07-12T17:39:12.690Z,25.51
2018-07-12T17:40:12.757Z,25.22
2018-07-12T17:42:05.761Z,25.04
2018-07-12T17:43:05.849Z,25.10
2018-07-12T17:44:58.833Z,25.13
2018-07-12T17:45:58.895Z,25.10
2018-07-12T17:47:51.909Z,25.10
2018-07-12T17:48:51.970Z,25.07
2018-07-12T17:50:44.980Z,25.07
2018-07-12T17:51:45.041Z,25.21
2018-07-12T17:53:38.043Z,25.29
2018-07-12T17:54:38.109Z,25.26
2018-07-12T17:56:31.123Z,25.03
2018-07-12T17:57:31.190Z,24.92
2018-07-12T17:59:24.194Z,24.93
2018-07-12T18:00:24.258Z,24.92
2018-07-12T18:02:17.264Z,25.04
2018-07-12T18:03:17.326Z,25.14
2018-07-12T18:05:10.392Z,25.04
2018-07-12T18:06:10.417Z,24.92
2018-07-12T18:08:03.403Z,24.84
2018-07-12T18:09:03.468Z,24.85
2018-07-12T18:10:56.477Z,24.80
2018-07-12T18:11:56.538Z,24.73
2018-07-12T18:13:49.541Z,24.73
2018-07-12T18:14:49.609Z,24.74
2018-07-12T18:16:42.613Z,24.77
2018-07-12T18:17:42.675Z,24.74
2018-07-12T18:19:35.687Z,24.54
2018-07-12T18:20:35.795Z,24.57
2018-07-12T18:22:28.788Z,24.57
2018-07-12T18:23:28.875Z,24.43
2018-07-12T18:25:21.860Z,24.35
2018-07-12T18:26:21.921Z,24.28
2018-07-12T18:28:15.068Z,24.24
2018-07-12T18:29:15.347Z,24.24
2018-07-12T18:31:08.151Z,24.16
2018-07-12T18:32:08.211Z,24.24
2018-07-12T18:34:01.216Z,24.10
2018-07-12T18:35:01.284Z,24.17
2018-07-12T18:36:54.302Z,24.11
2018-07-12T18:37:54.354Z,24.16